Time;durP1;ratioP1;P1;durP2;ratioP2;P2;SDS_P1;SDS_P2;PMS_P1;PMS_P2;Temp;Humidity;BMP_temperature;BMP_pressure;BME280_temperature;BME280_humidity;BME280_pressure;Samples;Min_cycle;Max_cycle;Signal;HPM_P1;HPM_P2
2021/08/21 00:00:31;;;;;;;12.63;5.25;;;;;;;;;;5091683;28;20043;-83
2021/08/21 00:02:59;;;;;;;11.23;5.30;;;;;;;;;;5106694;28;20027;-83
2021/08/21 00:05:24;;;;;;;11.75;5.28;;;;;;;;;;5119778;27;20262;-83
2021/08/21 00:07:49;;;;;;;8.80;5.00;;;;;;;;;;5091531;28;20031;-82
2021/08/21 00:10:15;;;;;;;11.85;5.45;;;;;;;;;;5090493;28;20016;-83
2021/08/21 00:12:40;;;;;;;9.48;5.18;;;;;;;;;;5089836;28;20028;-83
2021/08/21 00:15:07;;;;;;;8.02;4.82;;;;;;;;;;5100493;28;20095;-82
2021/08/21 00:17:32;;;;;;;7.90;4.97;;;;;;;;;;5111788;28;20084;-83
2021/08/21 00:19:57;;;;;;;11.48;4.90;;;;;;;;;;5111214;28;20047;-83
2021/08/21 00:22:22;;;;;;;10.02;5.43;;;;;;;;;;5110924;28;20024;-82
2021/08/21 00:24:48;;;;;;;8.97;5.23;;;;;;;;;;5127238;27;20051;-83
2021/08/21 00:27:13;;;;;;;10.27;5.88;;;;;;;;;;5111339;28;20253;-83
2021/08/21 00:29:38;;;;;;;12.70;5.30;;;;;;;;;;5126970;22;20046;-65
2021/08/21 00:32:04;;;;;;;12.02;5.75;;;;;;;;;;5109046;28;20052;-65
2021/08/21 00:34:29;;;;;;;15.82;5.05;;;;;;;;;;5092070;28;20476;-69
2021/08/21 00:36:54;;;;;;;9.73;5.20;;;;;;;;;;5091344;28;20016;-68
2021/08/21 00:39:19;;;;;;;25.40;6.37;;;;;;;;;;5091671;28;20530;-69
2021/08/21 00:41:45;;;;;;;14.57;5.67;;;;;;;;;;5092142;28;20293;-69
2021/08/21 00:44:10;;;;;;;10.50;5.95;;;;;;;;;;5091824;28;20261;-67
2021/08/21 00:46:54;;;;;;;11.82;4.90;;;;;;;;;;5092225;28;20179;-67
2021/08/21 00:49:20;;;;;;;11.65;5.47;;;;;;;;;;5081362;28;20024;-67
2021/08/21 00:51:45;;;;;;;12.55;5.50;;;;;;;;;;5091390;28;20153;-67
2021/08/21 00:54:10;;;;;;;12.23;5.37;;;;;;;;;;5091798;28;20298;-67
2021/08/21 00:56:35;;;;;;;11.87;5.60;;;;;;;;;;5091985;28;20250;-67
2021/08/21 00:59:02;;;;;;;11.88;5.93;;;;;;;;;;5092057;28;20758;-67
2021/08/21 01:01:27;;;;;;;9.07;5.75;;;;;;;;;;5092137;28;20104;-67
2021/08/21 01:03:53;;;;;;;10.63;5.88;;;;;;;;;;5091529;28;20478;-67
2021/08/21 01:06:18;;;;;;;15.15;6.10;;;;;;;;;;5091736;28;20085;-67
2021/08/21 01:08:43;;;;;;;14.83;6.13;;;;;;;;;;5090961;28;20111;-67
2021/08/21 01:11:08;;;;;;;20.90;5.43;;;;;;;;;;5091840;28;20739;-67
2021/08/21 01:13:34;;;;;;;14.87;5.83;;;;;;;;;;5091387;28;20303;-67
2021/08/21 01:15:59;;;;;;;14.38;5.63;;;;;;;;;;5091439;28;20320;-67
2021/08/21 01:18:24;;;;;;;12.77;5.67;;;;;;;;;;5091426;28;20020;-67
2021/08/21 01:20:50;;;;;;;9.88;5.53;;;;;;;;;;5091240;28;20629;-67
2021/08/21 01:23:15;;;;;;;13.20;6.40;;;;;;;;;;5091179;28;20069;-67
2021/08/21 01:25:40;;;;;;;10.60;6.15;;;;;;;;;;5091056;28;20036;-67
2021/08/21 01:28:06;;;;;;;14.68;6.70;;;;;;;;;;5091319;28;20026;-67
2021/08/21 01:30:31;;;;;;;13.93;6.30;;;;;;;;;;5091099;28;20057;-67
2021/08/21 01:32:56;;;;;;;7.60;5.10;;;;;;;;;;5090775;28;20051;-67
2021/08/21 01:35:21;;;;;;;12.40;5.72;;;;;;;;;;5091386;28;20338;-67
2021/08/21 01:37:47;;;;;;;14.48;6.10;;;;;;;;;;5091171;28;20030;-67
2021/08/21 01:40:14;;;;;;;15.13;6.10;;;;;;;;;;5090564;28;20135;-67
2021/08/21 01:42:40;;;;;;;9.18;5.45;;;;;;;;;;5090389;28;20069;-67
2021/08/21 01:45:09;;;;;;;16.38;5.90;;;;;;;;;;5090990;28;20024;-67
2021/08/21 01:47:34;;;;;;;10.95;5.43;;;;;;;;;;5090551;28;20113;-67
2021/08/21 01:50:02;;;;;;;13.10;5.53;;;;;;;;;;5079551;28;20052;-67
2021/08/21 01:52:27;;;;;;;10.25;5.43;;;;;;;;;;5090819;28;20246;-67
2021/08/21 01:54:52;;;;;;;12.35;5.32;;;;;;;;;;5091017;28;20016;-67
2021/08/21 01:57:18;;;;;;;9.75;6.18;;;;;;;;;;5090349;28;20098;-67
2021/08/21 01:59:44;;;;;;;15.10;5.88;;;;;;;;;;5091002;28;20016;-67
2021/08/21 02:02:11;;;;;;;9.43;5.13;;;;;;;;;;5090666;28;20022;-67
2021/08/21 02:04:36;;;;;;;11.65;5.78;;;;;;;;;;5090723;28;20017;-67
2021/08/21 02:07:02;;;;;;;10.82;5.03;;;;;;;;;;5090880;28;20077;-67
2021/08/21 02:09:27;;;;;;;7.25;5.22;;;;;;;;;;5090911;28;20645;-67
2021/08/21 02:11:54;;;;;;;12.80;5.88;;;;;;;;;;5089741;28;20422;-67
2021/08/21 02:14:19;;;;;;;12.13;5.43;;;;;;;;;;5090857;28;20064;-67
2021/08/21 02:16:45;;;;;;;8.35;5.18;;;;;;;;;;5090737;28;20027;-67
2021/08/21 02:19:10;;;;;;;9.65;4.90;;;;;;;;;;5090879;28;20435;-67
2021/08/21 02:21:36;;;;;;;9.40;5.47;;;;;;;;;;5090949;28;20072;-67
2021/08/21 02:24:01;;;;;;;8.00;5.45;;;;;;;;;;5090503;28;20364;-67
2021/08/21 02:26:27;;;;;;;9.85;5.68;;;;;;;;;;5090024;28;20153;-67
2021/08/21 02:28:53;;;;;;;11.88;5.13;;;;;;;;;;5090373;28;20039;-67
2021/08/21 02:31:18;;;;;;;12.00;6.13;;;;;;;;;;5090888;28;20674;-67
2021/08/21 02:33:43;;;;;;;18.98;6.75;;;;;;;;;;5090225;28;20020;-67
2021/08/21 02:36:09;;;;;;;11.67;5.70;;;;;;;;;;5090664;28;20112;-67
2021/08/21 02:38:34;;;;;;;11.93;6.03;;;;;;;;;;5090513;28;20652;-67
2021/08/21 02:40:59;;;;;;;12.20;5.95;;;;;;;;;;5105820;22;20302;-70
2021/08/21 02:43:24;;;;;;;10.38;5.72;;;;;;;;;;5089624;28;20052;-70
2021/08/21 02:45:49;;;;;;;13.82;6.88;;;;;;;;;;5090170;28;20051;-69
2021/08/21 02:48:15;;;;;;;16.17;6.90;;;;;;;;;;5072140;28;20055;-70
2021/08/21 02:50:40;;;;;;;11.55;6.53;;;;;;;;;;5090085;28;20020;-70
2021/08/21 02:53:06;;;;;;;9.60;6.00;;;;;;;;;;5089253;28;20092;-69
2021/08/21 02:55:31;;;;;;;13.23;6.15;;;;;;;;;;5085263;28;20059;-70
2021/08/21 02:57:56;;;;;;;21.48;5.60;;;;;;;;;;5074729;28;20020;-69
2021/08/21 03:00:21;;;;;;;11.23;6.23;;;;;;;;;;5094501;28;20020;-71
2021/08/21 03:02:47;;;;;;;14.27;6.03;;;;;;;;;;5094036;28;20323;-70
2021/08/21 03:05:12;;;;;;;16.08;5.85;;;;;;;;;;5094193;28;20254;-70
2021/08/21 03:07:37;;;;;;;9.38;5.40;;;;;;;;;;5093991;28;20020;-69
2021/08/21 03:10:06;;;;;;;15.70;6.67;;;;;;;;;;5093594;28;20016;-69
2021/08/21 03:12:31;;;;;;;12.40;5.82;;;;;;;;;;5088616;28;20270;-70
2021/08/21 03:14:56;;;;;;;13.10;5.63;;;;;;;;;;5085091;28;20490;-69
2021/08/21 03:17:22;;;;;;;15.07;7.25;;;;;;;;;;5089329;28;20471;-70
2021/08/21 03:19:47;;;;;;;12.73;6.57;;;;;;;;;;5082883;28;20051;-70
2021/08/21 03:22:12;;;;;;;14.73;6.95;;;;;;;;;;5073307;28;20016;-70
2021/08/21 03:24:37;;;;;;;9.47;6.13;;;;;;;;;;5073674;28;20070;-69
2021/08/21 03:27:03;;;;;;;12.43;6.00;;;;;;;;;;5073535;28;20262;-70
2021/08/21 03:29:28;;;;;;;13.00;6.30;;;;;;;;;;5077066;28;20696;-69
2021/08/21 03:31:53;;;;;;;11.23;6.03;;;;;;;;;;5074203;28;20028;-69
2021/08/21 03:34:22;;;;;;;14.87;6.13;;;;;;;;;;5073367;28;20733;-71
2021/08/21 03:36:47;;;;;;;16.33;7.05;;;;;;;;;;5073172;28;20266;-70
2021/08/21 03:39:13;;;;;;;11.68;6.90;;;;;;;;;;5073885;28;20036;-69
2021/08/21 03:41:38;;;;;;;20.00;6.77;;;;;;;;;;5073003;28;20024;-69
2021/08/21 03:44:03;;;;;;;13.05;7.20;;;;;;;;;;5072950;28;20250;-70
2021/08/21 03:46:28;;;;;;;15.60;7.35;;;;;;;;;;5078814;28;20024;-69
2021/08/21 03:48:53;;;;;;;10.90;7.60;;;;;;;;;;5093065;28;20169;-69
2021/08/21 03:51:19;;;;;;;14.10;7.17;;;;;;;;;;5093265;28;20377;-70
2021/08/21 03:53:44;;;;;;;14.93;6.93;;;;;;;;;;5088862;28;20377;-70
2021/08/21 03:56:09;;;;;;;22.23;8.23;;;;;;;;;;5081315;28;20266;-70
2021/08/21 03:58:34;;;;;;;15.70;8.10;;;;;;;;;;5093026;28;20824;-70
2021/08/21 04:00:59;;;;;;;13.87;7.00;;;;;;;;;;5093013;28;20246;-69
2021/08/21 04:03:24;;;;;;;14.67;7.50;;;;;;;;;;5079504;28;20663;-69
2021/08/21 04:05:50;;;;;;;10.45;7.55;;;;;;;;;;5072632;28;20358;-70
2021/08/21 04:08:15;;;;;;;17.10;7.10;;;;;;;;;;5072573;28;20103;-70
2021/08/21 04:10:40;;;;;;;14.67;7.80;;;;;;;;;;5072300;28;20582;-70
2021/08/21 04:13:05;;;;;;;21.37;8.13;;;;;;;;;;5071358;28;20263;-69
2021/08/21 04:15:30;;;;;;;14.77;7.93;;;;;;;;;;5072637;28;20282;-69
2021/08/21 04:17:56;;;;;;;13.75;7.97;;;;;;;;;;5090598;28;20663;-69
2021/08/21 04:20:21;;;;;;;14.15;7.90;;;;;;;;;;5066802;28;20535;-70
2021/08/21 04:22:46;;;;;;;12.77;7.35;;;;;;;;;;5072682;28;20553;-69
2021/08/21 04:25:11;;;;;;;15.43;7.20;;;;;;;;;;5072504;28;20036;-70
2021/08/21 04:27:36;;;;;;;18.13;7.67;;;;;;;;;;5072206;28;20290;-69
2021/08/21 04:30:02;;;;;;;15.43;7.53;;;;;;;;;;5072333;28;20970;-69
2021/08/21 04:32:27;;;;;;;16.15;8.52;;;;;;;;;;5074376;28;20052;-71
2021/08/21 04:34:52;;;;;;;18.07;7.60;;;;;;;;;;5071897;28;20024;-69
2021/08/21 04:37:18;;;;;;;13.63;7.05;;;;;;;;;;5078451;28;20304;-70
2021/08/21 04:39:43;;;;;;;16.92;7.95;;;;;;;;;;5092200;28;20077;-71
2021/08/21 04:42:08;;;;;;;18.42;7.03;;;;;;;;;;5092073;28;20614;-70
2021/08/21 04:44:33;;;;;;;21.77;7.30;;;;;;;;;;5091969;28;20016;-70
2021/08/21 04:46:59;;;;;;;15.23;7.78;;;;;;;;;;5080446;28;20044;-70
2021/08/21 04:49:24;;;;;;;18.70;7.70;;;;;;;;;;5071609;28;20021;-70
2021/08/21 04:51:49;;;;;;;18.77;8.47;;;;;;;;;;5071896;28;20024;-72
2021/08/21 04:54:14;;;;;;;13.48;8.05;;;;;;;;;;5071663;28;20609;-70
2021/08/21 04:56:39;;;;;;;19.90;8.23;;;;;;;;;;5053708;28;20366;-71
2021/08/21 04:59:05;;;;;;;13.88;8.13;;;;;;;;;;5087685;28;20274;-69
2021/08/21 05:01:30;;;;;;;16.33;8.17;;;;;;;;;;5073312;28;20035;-70
2021/08/21 05:03:55;;;;;;;18.07;9.13;;;;;;;;;;5085182;28;20348;-69
2021/08/21 05:06:20;;;;;;;16.80;7.90;;;;;;;;;;5091751;28;20265;-70
2021/08/21 05:08:45;;;;;;;15.73;9.63;;;;;;;;;;5091680;28;20358;-69
2021/08/21 05:11:11;;;;;;;14.63;8.70;;;;;;;;;;5091722;28;20250;-70
2021/08/21 05:13:36;;;;;;;18.30;8.77;;;;;;;;;;5091079;28;20024;-70
2021/08/21 05:16:01;;;;;;;19.48;9.07;;;;;;;;;;5091091;28;20586;-69
2021/08/21 05:18:31;;;;;;;19.57;9.57;;;;;;;;;;5091494;28;20039;-69
2021/08/21 05:21:05;;;;;;;15.50;8.90;;;;;;;;;;5090604;28;20274;-71
2021/08/21 05:23:31;;;;;;;17.80;9.93;;;;;;;;;;5091171;28;20020;-70
2021/08/21 05:25:56;;;;;;;15.30;8.88;;;;;;;;;;5091419;28;20081;-70
2021/08/21 05:28:21;;;;;;;14.77;9.07;;;;;;;;;;5074131;28;20024;-70
2021/08/21 05:30:47;;;;;;;20.40;10.13;;;;;;;;;;5070956;28;20255;-70
2021/08/21 05:33:13;;;;;;;18.38;9.15;;;;;;;;;;5085622;28;20070;-69
2021/08/21 05:35:38;;;;;;;16.85;8.55;;;;;;;;;;5072950;28;20080;-69
2021/08/21 05:38:04;;;;;;;15.52;8.70;;;;;;;;;;5091274;28;20107;-70
2021/08/21 05:40:30;;;;;;;17.95;8.68;;;;;;;;;;5090209;28;20035;-69
2021/08/21 05:42:55;;;;;;;17.58;8.50;;;;;;;;;;5091154;28;20020;-71
2021/08/21 05:45:20;;;;;;;15.80;9.07;;;;;;;;;;5091113;28;20020;-69
2021/08/21 05:47:46;;;;;;;13.10;7.93;;;;;;;;;;5089037;28;20286;-70
2021/08/21 05:50:11;;;;;;;15.05;8.75;;;;;;;;;;5091042;28;20782;-69
2021/08/21 05:52:37;;;;;;;29.10;8.57;;;;;;;;;;5090575;28;20024;-69
2021/08/21 05:55:02;;;;;;;13.20;7.97;;;;;;;;;;5090701;28;20019;-69
2021/08/21 05:57:27;;;;;;;19.15;8.23;;;;;;;;;;5074505;28;20779;-69
2021/08/21 05:59:52;;;;;;;15.33;7.80;;;;;;;;;;5077922;28;20026;-70
2021/08/21 06:02:17;;;;;;;13.10;7.73;;;;;;;;;;5090486;28;20258;-70
2021/08/21 06:04:42;;;;;;;14.15;7.82;;;;;;;;;;5090400;28;20341;-69
2021/08/21 06:07:08;;;;;;;16.43;8.13;;;;;;;;;;5090790;28;20509;-69
2021/08/21 06:09:33;;;;;;;12.37;8.77;;;;;;;;;;5072036;28;20344;-70
2021/08/21 06:11:58;;;;;;;12.57;6.57;;;;;;;;;;5083904;28;20298;-70
2021/08/21 06:14:23;;;;;;;14.77;8.17;;;;;;;;;;5082757;28;20319;-70
2021/08/21 06:16:48;;;;;;;11.30;7.43;;;;;;;;;;5090630;28;20709;-70
2021/08/21 06:19:13;;;;;;;9.83;6.53;;;;;;;;;;5066539;28;20251;-69
2021/08/21 06:21:42;;;;;;;11.48;6.85;;;;;;;;;;5071480;28;20266;-69
2021/08/21 06:24:07;;;;;;;12.95;6.63;;;;;;;;;;5081541;28;20068;-70
2021/08/21 06:26:32;;;;;;;10.90;6.97;;;;;;;;;;5072123;28;20347;-69
2021/08/21 06:28:57;;;;;;;15.73;7.47;;;;;;;;;;5074288;28;20021;-70
2021/08/21 06:31:22;;;;;;;10.20;6.57;;;;;;;;;;5080176;28;20016;-69
2021/08/21 06:33:48;;;;;;;13.93;6.63;;;;;;;;;;5086915;28;20277;-69
2021/08/21 06:36:13;;;;;;;9.80;6.03;;;;;;;;;;5077352;28;20342;-70
2021/08/21 06:38:38;;;;;;;9.70;6.20;;;;;;;;;;5077002;28;20278;-70
2021/08/21 06:41:03;;;;;;;9.13;5.87;;;;;;;;;;5087977;28;20274;-70
2021/08/21 06:43:28;;;;;;;11.60;6.23;;;;;;;;;;5096992;28;20338;-69
2021/08/21 06:45:54;;;;;;;9.38;6.03;;;;;;;;;;5097097;28;20250;-70
2021/08/21 06:48:19;;;;;;;9.55;5.60;;;;;;;;;;5080707;28;20569;-69
2021/08/21 06:50:44;;;;;;;8.90;5.55;;;;;;;;;;5077641;28;20032;-69
2021/08/21 06:53:10;;;;;;;11.77;5.97;;;;;;;;;;5087813;28;20535;-68
2021/08/21 06:55:35;;;;;;;14.90;7.20;;;;;;;;;;5077174;28;20346;-70
2021/08/21 06:58:00;;;;;;;11.02;5.85;;;;;;;;;;5076810;28;20474;-70
2021/08/21 07:00:26;;;;;;;8.60;6.05;;;;;;;;;;5078146;28;20020;-70
2021/08/21 07:02:51;;;;;;;9.73;5.93;;;;;;;;;;5096783;28;20024;-71
2021/08/21 07:05:16;;;;;;;13.27;6.30;;;;;;;;;;5097310;28;20020;-72
2021/08/21 07:07:41;;;;;;;7.47;5.67;;;;;;;;;;5096848;28;20258;-70
2021/08/21 07:10:06;;;;;;;7.63;5.10;;;;;;;;;;5091059;28;20265;-71
2021/08/21 07:12:32;;;;;;;9.18;5.43;;;;;;;;;;5082780;28;20304;-70
2021/08/21 07:14:57;;;;;;;8.70;4.50;;;;;;;;;;5083656;28;20085;-70
2021/08/21 07:17:22;;;;;;;8.80;4.63;;;;;;;;;;5096810;28;20061;-71
2021/08/21 07:19:48;;;;;;;11.93;3.90;;;;;;;;;;5096677;28;20113;-70
2021/08/21 07:22:13;;;;;;;8.73;4.30;;;;;;;;;;5092710;28;20402;-71
2021/08/21 07:24:38;;;;;;;8.13;3.70;;;;;;;;;;5096973;28;20262;-70
2021/08/21 07:27:03;;;;;;;6.20;4.13;;;;;;;;;;5092796;28;20740;-71
2021/08/21 07:29:29;;;;;;;9.82;4.28;;;;;;;;;;5095604;28;20485;-71
2021/08/21 07:31:54;;;;;;;7.57;3.80;;;;;;;;;;5095935;28;20059;-71
2021/08/21 07:34:19;;;;;;;6.85;4.00;;;;;;;;;;5096626;28;20377;-71
2021/08/21 07:36:44;;;;;;;6.20;4.00;;;;;;;;;;5096505;28;20024;-71
2021/08/21 07:39:10;;;;;;;7.10;3.87;;;;;;;;;;5096350;28;20356;-71
2021/08/21 07:41:35;;;;;;;9.17;3.23;;;;;;;;;;5096310;28;20027;-71
2021/08/21 07:44:00;;;;;;;5.07;3.30;;;;;;;;;;5084635;28;20387;-71
2021/08/21 07:46:25;;;;;;;6.70;3.42;;;;;;;;;;5073263;28;20255;-72
2021/08/21 07:48:50;;;;;;;10.37;3.33;;;;;;;;;;5073058;28;20066;-71
2021/08/21 07:51:16;;;;;;;8.27;3.07;;;;;;;;;;5072992;28;20272;-72
2021/08/21 07:53:41;;;;;;;11.95;3.22;;;;;;;;;;5076987;28;20012;-72
2021/08/21 07:56:06;;;;;;;9.10;2.97;;;;;;;;;;5093103;28;20028;-71
2021/08/21 07:58:32;;;;;;;7.50;3.17;;;;;;;;;;5073143;28;20178;-71
2021/08/21 08:00:57;;;;;;;8.85;3.17;;;;;;;;;;5073894;28;20413;-72
2021/08/21 08:03:22;;;;;;;6.63;3.03;;;;;;;;;;5072389;28;20096;-72
2021/08/21 08:05:48;;;;;;;5.63;3.37;;;;;;;;;;5072784;28;20021;-72
2021/08/21 08:08:13;;;;;;;9.00;4.70;;;;;;;;;;5072917;28;20029;-71
2021/08/21 08:10:38;;;;;;;6.22;3.97;;;;;;;;;;5071842;28;20044;-72
2021/08/21 08:13:03;;;;;;;7.17;4.67;;;;;;;;;;5072559;28;20541;-72
2021/08/21 08:15:29;;;;;;;5.70;3.72;;;;;;;;;;5072491;28;20036;-71
2021/08/21 08:17:54;;;;;;;5.83;4.20;;;;;;;;;;5072538;28;20385;-72
2021/08/21 08:20:19;;;;;;;8.80;5.93;;;;;;;;;;5072479;28;20337;-71
2021/08/21 08:22:44;;;;;;;11.35;6.70;;;;;;;;;;5072693;28;20350;-72
2021/08/21 08:25:10;;;;;;;7.30;5.67;;;;;;;;;;5072572;28;20069;-71
2021/08/21 08:27:35;;;;;;;12.45;7.30;;;;;;;;;;5072675;28;20493;-73
2021/08/21 08:30:00;;;;;;;9.85;6.32;;;;;;;;;;5072343;28;20044;-71
2021/08/21 08:32:25;;;;;;;9.83;4.77;;;;;;;;;;5071964;28;20063;-72
2021/08/21 08:34:51;;;;;;;14.53;4.97;;;;;;;;;;5072001;28;20257;-71
2021/08/21 08:37:16;;;;;;;10.43;5.77;;;;;;;;;;5072554;28;20016;-71
2021/08/21 08:39:41;;;;;;;11.07;5.90;;;;;;;;;;5072067;28;20338;-71
2021/08/21 08:42:07;;;;;;;10.70;6.57;;;;;;;;;;5109048;23;20040;-71
2021/08/21 08:44:33;;;;;;;9.90;6.03;;;;;;;;;;5091009;28;20481;-71
2021/08/21 08:46:59;;;;;;;9.77;5.72;;;;;;;;;;5108857;28;20026;-71
2021/08/21 08:49:24;;;;;;;9.05;5.70;;;;;;;;;;5109199;28;20106;-71
2021/08/21 08:51:50;;;;;;;12.18;6.82;;;;;;;;;;5097868;28;20547;-71
2021/08/21 08:54:15;;;;;;;11.90;5.88;;;;;;;;;;5092133;28;20020;-71
2021/08/21 08:56:40;;;;;;;9.33;5.60;;;;;;;;;;5092007;28;20111;-71
2021/08/21 08:59:05;;;;;;;8.18;4.90;;;;;;;;;;5092097;28;20019;-71
2021/08/21 09:01:31;;;;;;;8.57;5.13;;;;;;;;;;5091483;28;20103;-71
2021/08/21 09:04:14;;;;;;;11.97;4.97;;;;;;;;;;5091497;28;20043;-71
2021/08/21 09:06:40;;;;;;;8.45;4.63;;;;;;;;;;5081892;28;20466;-71
2021/08/21 09:09:12;;;;;;;11.83;5.57;;;;;;;;;;5077129;28;20020;-71
2021/08/21 09:11:40;;;;;;;9.52;4.95;;;;;;;;;;5086337;28;20759;-71
2021/08/21 09:14:17;;;;;;;7.47;5.15;;;;;;;;;;5072911;28;20023;-71
2021/08/21 09:16:42;;;;;;;9.25;3.60;;;;;;;;;;5090629;28;20031;-71
2021/08/21 09:19:07;;;;;;;6.72;4.63;;;;;;;;;;5071911;28;20017;-71
2021/08/21 09:21:33;;;;;;;7.85;4.72;;;;;;;;;;5071570;28;20026;-71
2021/08/21 09:23:58;;;;;;;8.30;4.15;;;;;;;;;;5085608;28;20020;-71
2021/08/21 09:26:36;;;;;;;7.82;4.13;;;;;;;;;;5091829;28;20023;-71
2021/08/21 09:29:02;;;;;;;8.13;3.70;;;;;;;;;;5091344;28;20032;-71
2021/08/21 09:31:30;;;;;;;12.07;3.65;;;;;;;;;;5091431;28;20043;-71
2021/08/21 09:34:18;;;;;;;6.45;3.28;;;;;;;;;;5091462;28;20016;-71
2021/08/21 09:36:46;;;;;;;7.90;3.20;;;;;;;;;;5091301;28;20023;-71
2021/08/21 09:39:12;;;;;;;7.95;2.83;;;;;;;;;;5091359;28;20362;-71
2021/08/21 09:41:55;;;;;;;7.35;2.47;;;;;;;;;;5090788;28;20027;-71
2021/08/21 09:44:27;;;;;;;4.00;2.78;;;;;;;;;;5085256;28;20024;-71
2021/08/21 09:47:11;;;;;;;6.65;2.25;;;;;;;;;;5091792;28;20020;-71
2021/08/21 09:49:36;;;;;;;3.53;1.92;;;;;;;;;;5091129;28;20103;-71
2021/08/21 09:52:11;;;;;;;3.17;2.50;;;;;;;;;;5090265;28;20095;-70
2021/08/21 09:54:36;;;;;;;9.55;2.00;;;;;;;;;;5090729;28;20019;-71
2021/08/21 09:57:02;;;;;;;5.20;2.10;;;;;;;;;;5091062;28;20016;-71
2021/08/21 09:59:35;;;;;;;5.93;2.17;;;;;;;;;;5090547;28;20027;-71
2021/08/21 10:02:03;;;;;;;4.35;2.03;;;;;;;;;;5090645;28;20016;-71
2021/08/21 10:04:28;;;;;;;2.83;1.63;;;;;;;;;;5090914;28;20185;-71
2021/08/21 10:06:53;;;;;;;4.87;1.70;;;;;;;;;;5091147;28;20030;-71
2021/08/21 10:09:19;;;;;;;2.13;1.30;;;;;;;;;;5091427;28;20782;-71
2021/08/21 10:11:45;;;;;;;1.88;1.15;;;;;;;;;;5090880;28;20123;-71
2021/08/21 10:14:11;;;;;;;2.50;1.15;;;;;;;;;;5090835;28;20440;-71
2021/08/21 10:16:37;;;;;;;2.15;1.38;;;;;;;;;;5090690;28;20024;-71
2021/08/21 10:19:03;;;;;;;4.72;1.52;;;;;;;;;;5090801;28;20024;-71
2021/08/21 10:21:30;;;;;;;2.55;1.40;;;;;;;;;;5090412;28;20103;-71
2021/08/21 10:23:56;;;;;;;3.47;1.40;;;;;;;;;;5090442;28;20553;-71
2021/08/21 10:26:29;;;;;;;3.47;1.58;;;;;;;;;;5090547;28;20016;-71
2021/08/21 10:28:55;;;;;;;3.15;1.45;;;;;;;;;;5091271;28;20111;-71
2021/08/21 10:31:33;;;;;;;2.33;1.00;;;;;;;;;;5090552;28;20013;-71
2021/08/21 10:33:58;;;;;;;3.28;1.30;;;;;;;;;;5090446;28;20012;-71
2021/08/21 10:36:39;;;;;;;4.43;1.27;;;;;;;;;;5089979;28;20380;-71
2021/08/21 10:39:18;;;;;;;2.50;1.15;;;;;;;;;;5090165;28;20265;-71
2021/08/21 10:41:44;;;;;;;1.88;1.42;;;;;;;;;;5090100;28;20028;-71
2021/08/21 10:44:09;;;;;;;1.95;1.33;;;;;;;;;;5090437;28;20358;-71
2021/08/21 10:46:34;;;;;;;4.28;1.67;;;;;;;;;;5090206;28;20024;-71
2021/08/21 10:49:01;;;;;;;2.13;1.20;;;;;;;;;;5090153;28;20385;-71
2021/08/21 10:51:35;;;;;;;3.92;1.75;;;;;;;;;;5090361;28;20257;-71
2021/08/21 10:54:20;;;;;;;5.10;1.38;;;;;;;;;;5089908;28;20351;-71
2021/08/21 10:56:46;;;;;;;2.08;1.60;;;;;;;;;;5089637;28;20032;-71
2021/08/21 10:59:11;;;;;;;1.67;1.08;;;;;;;;;;5090387;28;20023;-71
2021/08/21 11:01:36;;;;;;;3.88;1.83;;;;;;;;;;5071877;28;20016;-71
2021/08/21 11:04:01;;;;;;;2.00;1.77;;;;;;;;;;5090456;28;20032;-72
2021/08/21 11:06:31;;;;;;;1.85;0.98;;;;;;;;;;5090157;28;20291;-71
2021/08/21 11:08:57;;;;;;;4.65;1.65;;;;;;;;;;5089719;28;20016;-71
2021/08/21 11:14:24;;;;;;;7.85;1.50;;;;;;;;;;5086405;28;20390;-71
2021/08/21 11:16:53;;;;;;;2.90;1.40;;;;;;;;;;5090209;28;20103;-71
2021/08/21 11:19:24;;;;;;;2.57;1.40;;;;;;;;;;5091460;28;20069;-71
2021/08/21 11:21:50;;;;;;;3.95;1.40;;;;;;;;;;5093098;28;20116;-71
2021/08/21 11:24:22;;;;;;;2.90;1.75;;;;;;;;;;5093601;28;20091;-71
2021/08/21 11:26:48;;;;;;;1.50;1.25;;;;;;;;;;5093745;28;20206;-71
2021/08/21 11:29:15;;;;;;;3.00;1.63;;;;;;;;;;5093618;28;20103;-71
2021/08/21 11:31:50;;;;;;;4.03;1.33;;;;;;;;;;5093537;28;20012;-71
2021/08/21 11:34:16;;;;;;;2.30;1.50;;;;;;;;;;5093350;28;20028;-71
2021/08/21 11:36:41;;;;;;;5.38;1.42;;;;;;;;;;5092910;28;20030;-71
2021/08/21 11:39:09;;;;;;;2.35;1.48;;;;;;;;;;5093307;28;20486;-72
2021/08/21 11:41:34;;;;;;;5.15;1.00;;;;;;;;;;5093217;28;20074;-71
2021/08/21 11:44:06;;;;;;;3.97;1.87;;;;;;;;;;5092160;28;20051;-71
2021/08/21 11:46:32;;;;;;;3.20;1.45;;;;;;;;;;5093598;28;20289;-71
2021/08/21 11:49:07;;;;;;;3.28;1.52;;;;;;;;;;5093479;28;20369;-71
2021/08/21 11:51:37;;;;;;;2.13;1.80;;;;;;;;;;5093302;28;20378;-71
2021/08/21 11:54:06;;;;;;;1.70;1.40;;;;;;;;;;5093146;28;20017;-71
2021/08/21 11:56:31;;;;;;;1.88;1.17;;;;;;;;;;5093063;28;20108;-71
2021/08/21 11:59:05;;;;;;;5.43;1.80;;;;;;;;;;5092855;28;20103;-71
2021/08/21 12:01:34;;;;;;;3.67;1.50;;;;;;;;;;5092691;28;20656;-71
2021/08/21 12:06:29;;;;;;;7.88;1.90;;;;;;;;;;5092924;28;20258;-71
2021/08/21 12:09:14;;;;;;;2.72;1.65;;;;;;;;;;5074658;28;20023;-71
2021/08/21 12:11:49;;;;;;;2.17;1.55;;;;;;;;;;5092423;28;20374;-71
2021/08/21 12:14:15;;;;;;;3.95;1.55;;;;;;;;;;5092797;28;20039;-72
2021/08/21 12:16:41;;;;;;;3.10;1.67;;;;;;;;;;5092729;28;20013;-72
2021/08/21 12:19:06;;;;;;;4.28;1.92;;;;;;;;;;5092664;28;20020;-71
2021/08/21 12:21:32;;;;;;;4.32;1.80;;;;;;;;;;5092385;28;20016;-71
2021/08/21 12:23:57;;;;;;;2.40;0.98;;;;;;;;;;5092658;28;20032;-71
2021/08/21 12:26:33;;;;;;;4.13;1.80;;;;;;;;;;5092925;28;20063;-71
2021/08/21 12:28:58;;;;;;;2.55;1.38;;;;;;;;;;5092427;28;20115;-71
2021/08/21 12:31:32;;;;;;;3.97;2.28;;;;;;;;;;5081959;28;20151;-71
2021/08/21 12:33:57;;;;;;;4.85;2.47;;;;;;;;;;5082078;28;20086;-71
2021/08/21 12:36:23;;;;;;;3.13;1.90;;;;;;;;;;5074417;28;20013;-71
2021/08/21 12:39:05;;;;;;;3.25;2.10;;;;;;;;;;5092253;28;20073;-71
2021/08/21 12:41:31;;;;;;;2.88;2.13;;;;;;;;;;5092350;28;20051;-71
2021/08/21 12:44:04;;;;;;;7.10;2.22;;;;;;;;;;5091954;28;20086;-71
2021/08/21 12:46:29;;;;;;;5.90;2.45;;;;;;;;;;5092606;28;20028;-71
2021/08/21 12:49:03;;;;;;;3.70;2.00;;;;;;;;;;5092275;28;20113;-71
2021/08/21 12:51:36;;;;;;;3.22;2.05;;;;;;;;;;5092374;28;20465;-71
2021/08/21 12:54:03;;;;;;;4.20;2.15;;;;;;;;;;5091041;28;20027;-71
2021/08/21 12:56:28;;;;;;;2.78;2.00;;;;;;;;;;5092042;28;20487;-71
2021/08/21 12:59:14;;;;;;;2.93;2.13;;;;;;;;;;5092093;28;20040;-71
2021/08/21 13:01:39;;;;;;;3.78;2.42;;;;;;;;;;5091955;28;20032;-71
2021/08/21 13:04:04;;;;;;;3.70;2.42;;;;;;;;;;5090892;28;20020;-71
2021/08/21 13:06:30;;;;;;;5.00;2.70;;;;;;;;;;5092315;28;20508;-71
2021/08/21 13:08:55;;;;;;;3.73;2.30;;;;;;;;;;5091908;28;20756;-71
2021/08/21 13:11:20;;;;;;;3.93;2.30;;;;;;;;;;5091911;28;20060;-71
2021/08/21 13:13:45;;;;;;;6.37;2.23;;;;;;;;;;5073346;28;20085;-71
2021/08/21 13:16:10;;;;;;;5.60;2.23;;;;;;;;;;5091802;28;20043;-71
2021/08/21 13:18:35;;;;;;;3.80;1.90;;;;;;;;;;5091611;28;20095;-71
2021/08/21 13:21:01;;;;;;;5.13;2.20;;;;;;;;;;5090699;28;20498;-71
2021/08/21 13:23:27;;;;;;;6.60;2.33;;;;;;;;;;5091463;28;20020;-71
2021/08/21 13:25:52;;;;;;;5.63;2.10;;;;;;;;;;5091589;28;20043;-71
2021/08/21 13:28:19;;;;;;;4.28;2.55;;;;;;;;;;5091384;28;20027;-70
2021/08/21 13:30:44;;;;;;;3.15;1.75;;;;;;;;;;5091347;28;20024;-71
2021/08/21 13:33:09;;;;;;;5.13;3.20;;;;;;;;;;5090373;28;20363;-70
2021/08/21 13:35:35;;;;;;;5.37;2.60;;;;;;;;;;5091369;28;20496;-70
2021/08/21 13:38:00;;;;;;;5.72;2.70;;;;;;;;;;5091210;28;20262;-70
2021/08/21 13:40:25;;;;;;;2.80;2.43;;;;;;;;;;5090970;28;20024;-70
2021/08/21 13:42:51;;;;;;;3.95;2.70;;;;;;;;;;5090056;28;20116;-70
2021/08/21 13:45:17;;;;;;;3.60;2.42;;;;;;;;;;5089608;28;20351;-70
2021/08/21 13:47:42;;;;;;;3.58;2.22;;;;;;;;;;5088005;28;20065;-70
2021/08/21 13:50:07;;;;;;;7.57;2.73;;;;;;;;;;5075884;28;20547;-70
2021/08/21 13:52:33;;;;;;;3.17;2.17;;;;;;;;;;5090602;28;20031;-70
2021/08/21 13:54:58;;;;;;;2.43;1.73;;;;;;;;;;5072866;28;20036;-70
2021/08/21 13:57:23;;;;;;;6.27;2.93;;;;;;;;;;5090807;28;20255;-70
2021/08/21 13:59:50;;;;;;;7.53;2.65;;;;;;;;;;5090750;28;20268;-70
2021/08/21 14:02:16;;;;;;;8.23;2.85;;;;;;;;;;5090202;28;20024;-70
2021/08/21 14:04:41;;;;;;;5.07;3.00;;;;;;;;;;5089691;28;20084;-70
2021/08/21 14:07:07;;;;;;;4.93;2.93;;;;;;;;;;5090808;28;20016;-70
2021/08/21 14:09:32;;;;;;;4.70;2.60;;;;;;;;;;5090480;28;20928;-70
2021/08/21 14:11:58;;;;;;;5.55;2.80;;;;;;;;;;5090418;28;20130;-70
2021/08/21 14:14:24;;;;;;;8.77;3.22;;;;;;;;;;5090721;28;20020;-70
2021/08/21 14:16:49;;;;;;;4.95;3.30;;;;;;;;;;5090210;28;20107;-70
2021/08/21 14:19:14;;;;;;;6.73;2.90;;;;;;;;;;5090365;28;20177;-70
2021/08/21 14:21:40;;;;;;;3.43;2.73;;;;;;;;;;5090407;28;20406;-70
2021/08/21 14:24:06;;;;;;;4.15;2.50;;;;;;;;;;5090463;28;20027;-70
2021/08/21 14:26:31;;;;;;;5.82;2.60;;;;;;;;;;5090810;28;20035;-70
2021/08/21 14:28:56;;;;;;;8.17;2.33;;;;;;;;;;5090594;28;20070;-70
2021/08/21 14:31:22;;;;;;;3.88;1.52;;;;;;;;;;5071946;28;20365;-70
2021/08/21 14:33:47;;;;;;;8.80;3.05;;;;;;;;;;5089323;28;20667;-70
2021/08/21 14:36:12;;;;;;;6.53;2.55;;;;;;;;;;5089297;28;20008;-71
2021/08/21 14:38:37;;;;;;;4.33;2.60;;;;;;;;;;5081522;28;20389;-70